sensor_id;sensor_type;location;lat;lon;timestamp;temperature;humidity
37281;DHT22;23169;41.804;12.596;2023-04-01T00:00:53;14.10;5.00
37281;DHT22;23169;41.804;12.596;2023-04-01T00:03:23;14.10;5.20
37281;DHT22;23169;41.804;12.596;2023-04-01T00:05:53;14.10;5.70
37281;DHT22;23169;41.804;12.596;2023-04-01T00:08:22;14.10;6.20
37281;DHT22;23169;41.804;12.596;2023-04-01T00:10:51;14.00;6.50
37281;DHT22;23169;41.804;12.596;2023-04-01T00:13:20;14.00;7.00
37281;DHT22;23169;41.804;12.596;2023-04-01T00:15:49;13.90;7.40
37281;DHT22;23169;41.804;12.596;2023-04-01T00:18:17;13.90;7.90
37281;DHT22;23169;41.804;12.596;2023-04-01T00:20:48;13.90;8.40
37281;DHT22;23169;41.804;12.596;2023-04-01T00:23:19;13.90;8.50
37281;DHT22;23169;41.804;12.596;2023-04-01T00:25:48;13.90;9.00
37281;DHT22;23169;41.804;12.596;2023-04-01T00:28:19;13.90;9.50
37281;DHT22;23169;41.804;12.596;2023-04-01T00:30:48;13.90;10.10
37281;DHT22;23169;41.804;12.596;2023-04-01T00:33:17;14.00;10.50
37281;DHT22;23169;41.804;12.596;2023-04-01T00:35:46;14.00;10.50
37281;DHT22;23169;41.804;12.596;2023-04-01T00:38:15;14.00;10.80
37281;DHT22;23169;41.804;12.596;2023-04-01T00:40:46;14.00;10.90
37281;DHT22;23169;41.804;12.596;2023-04-01T00:43:18;14.10;11.20
37281;DHT22;23169;41.804;12.596;2023-04-01T00:45:48;14.10;11.20
37281;DHT22;23169;41.804;12.596;2023-04-01T00:48:20;14.10;11.80
37281;DHT22;23169;41.804;12.596;2023-04-01T00:51:08;14.10;12.50
37281;DHT22;23169;41.804;12.596;2023-04-01T00:53:39;14.10;13.90
37281;DHT22;23169;41.804;12.596;2023-04-01T00:56:17;14.10;14.30
37281;DHT22;23169;41.804;12.596;2023-04-01T00:58:51;14.20;14.90
37281;DHT22;23169;41.804;12.596;2023-04-01T01:01:23;14.20;16.30
37281;DHT22;23169;41.804;12.596;2023-04-01T01:03:52;14.20;16.70
37281;DHT22;23169;41.804;12.596;2023-04-01T01:09:18;14.10;18.60
37281;DHT22;23169;41.804;12.596;2023-04-01T01:25:57;14.10;27.50
37281;DHT22;23169;41.804;12.596;2023-04-01T01:28:49;14.00;29.20
37281;DHT22;23169;41.804;12.596;2023-04-01T01:37:35;14.00;38.00
37281;DHT22;23169;41.804;12.596;2023-04-01T01:40:08;14.00;41.10
37281;DHT22;23169;41.804;12.596;2023-04-01T01:42:39;14.00;43.00
37281;DHT22;23169;41.804;12.596;2023-04-01T01:45:10;14.00;45.30
37281;DHT22;23169;41.804;12.596;2023-04-01T01:47:41;14.00;45.60
37281;DHT22;23169;41.804;12.596;2023-04-01T01:50:11;14.00;47.40
37281;DHT22;23169;41.804;12.596;2023-04-01T01:52:41;13.90;50.40
37281;DHT22;23169;41.804;12.596;2023-04-01T01:57:59;13.80;56.40
37281;DHT22;23169;41.804;12.596;2023-04-01T02:00:29;13.80;59.10
37281;DHT22;23169;41.804;12.596;2023-04-01T02:02:58;13.80;60.70
37281;DHT22;23169;41.804;12.596;2023-04-01T02:05:29;13.70;63.70
37281;DHT22;23169;41.804;12.596;2023-04-01T02:08:06;13.80;65.90
37281;DHT22;23169;41.804;12.596;2023-04-01T02:10:39;13.90;99.90
37281;DHT22;23169;41.804;12.596;2023-04-01T02:13:16;13.70;72.60
37281;DHT22;23169;41.804;12.596;2023-04-01T02:15:49;13.70;74.50
37281;DHT22;23169;41.804;12.596;2023-04-01T02:18:19;13.30;99.90
37281;DHT22;23169;41.804;12.596;2023-04-01T02:20:49;13.60;79.00
37281;DHT22;23169;41.804;12.596;2023-04-01T02:23:19;13.60;80.90
37281;DHT22;23169;41.804;12.596;2023-04-01T02:25:48;13.60;85.30
37281;DHT22;23169;41.804;12.596;2023-04-01T02:28:17;13.60;88.40
37281;DHT22;23169;41.804;12.596;2023-04-01T02:30:50;13.60;90.10
37281;DHT22;23169;41.804;12.596;2023-04-01T02:33:19;13.50;91.70
37281;DHT22;23169;41.804;12.596;2023-04-01T02:35:49;13.50;93.70
37281;DHT22;23169;41.804;12.596;2023-04-01T02:38:18;13.40;95.70
37281;DHT22;23169;41.804;12.596;2023-04-01T02:40:56;13.30;97.70
37281;DHT22;23169;41.804;12.596;2023-04-01T02:43:25;13.40;99.20
37281;DHT22;23169;41.804;12.596;2023-04-01T02:45:54;13.40;99.90
37281;DHT22;23169;41.804;12.596;2023-04-01T02:48:23;13.40;99.90
37281;DHT22;23169;41.804;12.596;2023-04-01T02:50:53;13.40;99.90
37281;DHT22;23169;41.804;12.596;2023-04-01T02:53:21;13.40;99.90
37281;DHT22;23169;41.804;12.596;2023-04-01T02:55:50;13.40;99.90
37281;DHT22;23169;41.804;12.596;2023-04-01T02:58:19;11.90;99.90
37281;DHT22;23169;41.804;12.596;2023-04-01T03:00:48;13.40;99.90
37281;DHT22;23169;41.804;12.596;2023-04-01T03:03:17;13.30;99.90
37281;DHT22;23169;41.804;12.596;2023-04-01T03:05:46;13.30;99.90
37281;DHT22;23169;41.804;12.596;2023-04-01T03:08:16;13.30;99.90
37281;DHT22;23169;41.804;12.596;2023-04-01T03:10:45;13.30;99.90
37281;DHT22;23169;41.804;12.596;2023-04-01T03:13:14;13.30;99.90
37281;DHT22;23169;41.804;12.596;2023-04-01T03:15:44;13.20;99.90
37281;DHT22;23169;41.804;12.596;2023-04-01T03:18:12;13.30;99.90
37281;DHT22;23169;41.804;12.596;2023-04-01T03:20:45;13.30;99.90
37281;DHT22;23169;41.804;12.596;2023-04-01T03:23:15;13.30;99.90
37281;DHT22;23169;41.804;12.596;2023-04-01T03:25:47;13.30;99.90
37281;DHT22;23169;41.804;12.596;2023-04-01T03:28:16;13.30;99.90
37281;DHT22;23169;41.804;12.596;2023-04-01T03:30:45;13.30;99.90
37281;DHT22;23169;41.804;12.596;2023-04-01T03:33:13;13.30;99.90
37281;DHT22;23169;41.804;12.596;2023-04-01T03:35:42;13.20;99.90
37281;DHT22;23169;41.804;12.596;2023-04-01T03:38:10;13.20;99.90
37281;DHT22;23169;41.804;12.596;2023-04-01T03:40:42;13.20;99.90
37281;DHT22;23169;41.804;12.596;2023-04-01T03:43:12;13.20;99.90
37281;DHT22;23169;41.804;12.596;2023-04-01T03:45:49;13.30;99.90
37281;DHT22;23169;41.804;12.596;2023-04-01T03:48:20;13.40;99.90
37281;DHT22;23169;41.804;12.596;2023-04-01T03:50:50;13.30;99.90
37281;DHT22;23169;41.804;12.596;2023-04-01T03:53:18;13.20;99.90
37281;DHT22;23169;41.804;12.596;2023-04-01T03:55:48;13.20;99.90
37281;DHT22;23169;41.804;12.596;2023-04-01T03:58:17;13.20;99.90
37281;DHT22;23169;41.804;12.596;2023-04-01T04:00:46;13.30;99.90
37281;DHT22;23169;41.804;12.596;2023-04-01T04:03:15;13.20;99.90
37281;DHT22;23169;41.804;12.596;2023-04-01T04:05:48;13.20;99.90
37281;DHT22;23169;41.804;12.596;2023-04-01T04:08:23;13.10;99.90
37281;DHT22;23169;41.804;12.596;2023-04-01T04:10:55;13.10;99.90
37281;DHT22;23169;41.804;12.596;2023-04-01T04:13:24;13.00;99.90
37281;DHT22;23169;41.804;12.596;2023-04-01T04:18:23;12.90;99.90
37281;DHT22;23169;41.804;12.596;2023-04-01T04:20:52;12.90;99.90
37281;DHT22;23169;41.804;12.596;2023-04-01T04:23:20;12.90;99.90
37281;DHT22;23169;41.804;12.596;2023-04-01T04:25:57;12.90;99.90
37281;DHT22;23169;41.804;12.596;2023-04-01T04:28:27;12.90;99.90
37281;DHT22;23169;41.804;12.596;2023-04-01T04:30:56;12.80;99.90
37281;DHT22;23169;41.804;12.596;2023-04-01T04:33:27;12.60;99.90
37281;DHT22;23169;41.804;12.596;2023-04-01T04:35:57;12.80;99.90
37281;DHT22;23169;41.804;12.596;2023-04-01T04:38:26;12.80;99.90
37281;DHT22;23169;41.804;12.596;2023-04-01T04:40:55;12.80;99.90
37281;DHT22;23169;41.804;12.596;2023-04-01T04:43:24;12.80;99.90
37281;DHT22;23169;41.804;12.596;2023-04-01T04:45:53;12.80;99.90
37281;DHT22;23169;41.804;12.596;2023-04-01T04:48:22;12.90;99.90
37281;DHT22;23169;41.804;12.596;2023-04-01T04:50:50;12.90;99.90
37281;DHT22;23169;41.804;12.596;2023-04-01T04:53:19;12.90;99.90
37281;DHT22;23169;41.804;12.596;2023-04-01T04:55:49;12.90;99.90
37281;DHT22;23169;41.804;12.596;2023-04-01T05:00:47;13.00;99.90
37281;DHT22;23169;41.804;12.596;2023-04-01T05:03:16;13.10;99.90
37281;DHT22;23169;41.804;12.596;2023-04-01T05:05:53;13.10;99.90
37281;DHT22;23169;41.804;12.596;2023-04-01T05:08:22;12.80;99.90
37281;DHT22;23169;41.804;12.596;2023-04-01T05:10:50;12.90;99.90
37281;DHT22;23169;41.804;12.596;2023-04-01T05:13:22;12.90;99.90
37281;DHT22;23169;41.804;12.596;2023-04-01T05:15:50;12.90;99.90
37281;DHT22;23169;41.804;12.596;2023-04-01T05:18:19;12.90;99.90
37281;DHT22;23169;41.804;12.596;2023-04-01T05:20:52;12.80;99.90
37281;DHT22;23169;41.804;12.596;2023-04-01T05:23:22;13.00;94.90
37281;DHT22;23169;41.804;12.596;2023-04-01T05:25:51;13.00;99.90
37281;DHT22;23169;41.804;12.596;2023-04-01T05:28:21;13.00;99.00
37281;DHT22;23169;41.804;12.596;2023-04-01T05:30:49;13.00;98.90
37281;DHT22;23169;41.804;12.596;2023-04-01T05:33:18;13.00;99.00
37281;DHT22;23169;41.804;12.596;2023-04-01T05:35:46;12.90;99.20
37281;DHT22;23169;41.804;12.596;2023-04-01T05:38:15;13.00;99.10
37281;DHT22;23169;41.804;12.596;2023-04-01T05:40:43;13.00;98.60
37281;DHT22;23169;41.804;12.596;2023-04-01T05:43:13;13.10;97.60
37281;DHT22;23169;41.804;12.596;2023-04-01T05:45:42;13.10;96.30
37281;DHT22;23169;41.804;12.596;2023-04-01T05:48:10;13.20;94.60
37281;DHT22;23169;41.804;12.596;2023-04-01T05:50:40;13.20;93.50
37281;DHT22;23169;41.804;12.596;2023-04-01T05:53:10;13.20;92.70
37281;DHT22;23169;41.804;12.596;2023-04-01T05:55:39;13.30;91.70
37281;DHT22;23169;41.804;12.596;2023-04-01T05:58:08;13.30;91.50
37281;DHT22;23169;41.804;12.596;2023-04-01T06:00:38;13.30;90.80
37281;DHT22;23169;41.804;12.596;2023-04-01T06:03:07;13.40;88.70
37281;DHT22;23169;41.804;12.596;2023-04-01T06:05:43;13.50;86.50
37281;DHT22;23169;41.804;12.596;2023-04-01T06:08:17;13.50;82.50
37281;DHT22;23169;41.804;12.596;2023-04-01T06:19:46;13.60;72.20
37281;DHT22;23169;41.804;12.596;2023-04-01T06:22:43;13.60;73.60
37281;DHT22;23169;41.804;12.596;2023-04-01T06:25:40;13.70;72.90
37281;DHT22;23169;41.804;12.596;2023-04-01T06:54:30;14.30;10.20
37281;DHT22;23169;41.804;12.596;2023-04-01T06:57:05;14.30;10.60
37281;DHT22;23169;41.804;12.596;2023-04-01T06:59:39;14.40;8.50
37281;DHT22;23169;41.804;12.596;2023-04-01T07:02:25;14.50;8.00
37281;DHT22;23169;41.804;12.596;2023-04-01T07:04:56;14.70;7.50
37281;DHT22;23169;41.804;12.596;2023-04-01T07:09:57;15.00;4.00
37281;DHT22;23169;41.804;12.596;2023-04-01T07:15:10;15.10;1.00
37281;DHT22;23169;41.804;12.596;2023-04-01T07:17:43;15.10;1.00
37281;DHT22;23169;41.804;12.596;2023-04-01T07:20:23;15.10;1.00
37281;DHT22;23169;41.804;12.596;2023-04-01T07:22:57;15.00;1.00
37281;DHT22;23169;41.804;12.596;2023-04-01T07:25:47;15.00;1.00
37281;DHT22;23169;41.804;12.596;2023-04-01T07:28:17;15.00;1.00
37281;DHT22;23169;41.804;12.596;2023-04-01T07:30:59;15.00;1.00
37281;DHT22;23169;41.804;12.596;2023-04-01T07:45:40;15.50;1.00
37281;DHT22;23169;41.804;12.596;2023-04-01T07:51:12;15.50;1.00
37281;DHT22;23169;41.804;12.596;2023-04-01T07:56:30;15.70;1.00
37281;DHT22;23169;41.804;12.596;2023-04-01T08:13:09;16.50;1.00
37281;DHT22;23169;41.804;12.596;2023-04-01T08:23:36;16.70;1.00
37281;DHT22;23169;41.804;12.596;2023-04-01T08:34:17;16.70;1.00
37281;DHT22;23169;41.804;12.596;2023-04-01T08:36:51;16.80;1.00
37281;DHT22;23169;41.804;12.596;2023-04-01T08:39:30;16.80;1.00
37281;DHT22;23169;41.804;12.596;2023-04-01T08:56:47;17.10;1.00
37281;DHT22;23169;41.804;12.596;2023-04-01T09:06:12;17.40;1.00
37281;DHT22;23169;41.804;12.596;2023-04-01T09:11:12;17.60;1.00
37281;DHT22;23169;41.804;12.596;2023-04-01T09:17:37;18.00;1.00
37281;DHT22;23169;41.804;12.596;2023-04-01T09:20:26;18.00;1.00
37281;DHT22;23169;41.804;12.596;2023-04-01T09:31:45;17.80;1.00
37281;DHT22;23169;41.804;12.596;2023-04-01T09:37:55;18.50;1.00
37281;DHT22;23169;41.804;12.596;2023-04-01T09:40:34;18.60;1.00
37281;DHT22;23169;41.804;12.596;2023-04-01T10:02:50;18.30;1.00
37281;DHT22;23169;41.804;12.596;2023-04-01T10:20:05;18.60;1.00
37281;DHT22;23169;41.804;12.596;2023-04-01T10:42:39;18.80;1.00
37281;DHT22;23169;41.804;12.596;2023-04-01T10:48:21;18.80;1.00
37281;DHT22;23169;41.804;12.596;2023-04-01T10:54:05;19.10;1.00
37281;DHT22;23169;41.804;12.596;2023-04-01T10:57:02;19.50;1.00
37281;DHT22;23169;41.804;12.596;2023-04-01T11:23:54;19.20;1.00
37281;DHT22;23169;41.804;12.596;2023-04-01T11:26:43;19.30;1.00
37281;DHT22;23169;41.804;12.596;2023-04-01T11:29:23;19.20;1.00
37281;DHT22;23169;41.804;12.596;2023-04-01T11:32:28;19.30;1.00
37281;DHT22;23169;41.804;12.596;2023-04-01T11:37:45;19.50;1.00
37281;DHT22;23169;41.804;12.596;2023-04-01T11:40:23;19.50;1.00
37281;DHT22;23169;41.804;12.596;2023-04-01T11:45:56;20.00;1.00
37281;DHT22;23169;41.804;12.596;2023-04-01T11:54:06;20.90;1.00
37281;DHT22;23169;41.804;12.596;2023-04-01T11:56:53;20.50;1.00
37281;DHT22;23169;41.804;12.596;2023-04-01T11:59:38;20.90;1.00
37281;DHT22;23169;41.804;12.596;2023-04-01T12:08:33;21.40;1.00
37281;DHT22;23169;41.804;12.596;2023-04-01T12:11:20;21.40;1.00
37281;DHT22;23169;41.804;12.596;2023-04-01T12:14:30;22.30;1.00
37281;DHT22;23169;41.804;12.596;2023-04-01T12:29:02;22.80;1.00
37281;DHT22;23169;41.804;12.596;2023-04-01T12:34:49;22.70;1.00
37281;DHT22;23169;41.804;12.596;2023-04-01T12:46:22;22.10;1.00
37281;DHT22;23169;41.804;12.596;2023-04-01T12:49:26;21.50;1.00
37281;DHT22;23169;41.804;12.596;2023-04-01T13:06:20;22.20;1.00
37281;DHT22;23169;41.804;12.596;2023-04-01T13:20:14;21.60;1.00
37281;DHT22;23169;41.804;12.596;2023-04-01T13:22:51;21.40;1.00
37281;DHT22;23169;41.804;12.596;2023-04-01T13:25:24;22.10;1.00
37281;DHT22;23169;41.804;12.596;2023-04-01T13:36:18;24.40;1.00
37281;DHT22;23169;41.804;12.596;2023-04-01T13:43:49;23.90;1.00
37281;DHT22;23169;41.804;12.596;2023-04-01T13:46:53;23.80;1.00
37281;DHT22;23169;41.804;12.596;2023-04-01T13:54:53;23.10;1.00
37281;DHT22;23169;41.804;12.596;2023-04-01T14:06:05;23.70;1.00
37281;DHT22;23169;41.804;12.596;2023-04-01T14:17:07;24.10;1.00
37281;DHT22;23169;41.804;12.596;2023-04-01T14:19:56;24.20;1.00
37281;DHT22;23169;41.804;12.596;2023-04-01T14:33:43;24.70;1.00
37281;DHT22;23169;41.804;12.596;2023-04-01T14:48:00;21.60;1.00
37281;DHT22;23169;41.804;12.596;2023-04-01T14:50:49;21.00;1.00
37281;DHT22;23169;41.804;12.596;2023-04-01T14:53:26;20.40;1.00
37281;DHT22;23169;41.804;12.596;2023-04-01T14:55:58;20.90;1.00
37281;DHT22;23169;41.804;12.596;2023-04-01T14:58:45;21.90;1.00
37281;DHT22;23169;41.804;12.596;2023-04-01T15:16:13;24.90;1.00
37281;DHT22;23169;41.804;12.596;2023-04-01T15:18:59;25.20;1.00
37281;DHT22;23169;41.804;12.596;2023-04-01T15:27:34;25.20;1.00
37281;DHT22;23169;41.804;12.596;2023-04-01T15:35:29;25.60;1.00
37281;DHT22;23169;41.804;12.596;2023-04-01T15:40:52;24.00;1.00
37281;DHT22;23169;41.804;12.596;2023-04-01T16:08:49;19.50;1.00
37281;DHT22;23169;41.804;12.596;2023-04-01T16:11:34;19.40;1.00
37281;DHT22;23169;41.804;12.596;2023-04-01T16:14:43;19.20;1.00
37281;DHT22;23169;41.804;12.596;2023-04-01T16:17:28;19.10;1.00
37281;DHT22;23169;41.804;12.596;2023-04-01T16:20:18;19.10;1.00
37281;DHT22;23169;41.804;12.596;2023-04-01T16:23:02;19.00;1.00
37281;DHT22;23169;41.804;12.596;2023-04-01T16:25:53;18.90;1.00
37281;DHT22;23169;41.804;12.596;2023-04-01T16:28:37;18.50;1.00
37281;DHT22;23169;41.804;12.596;2023-04-01T16:34:39;18.20;1.00
37281;DHT22;23169;41.804;12.596;2023-04-01T16:37:15;18.20;1.00
37281;DHT22;23169;41.804;12.596;2023-04-01T16:39:53;18.20;1.00
37281;DHT22;23169;41.804;12.596;2023-04-01T16:42:50;18.20;1.00
37281;DHT22;23169;41.804;12.596;2023-04-01T16:45:23;18.00;1.00
37281;DHT22;23169;41.804;12.596;2023-04-01T16:48:01;17.80;1.00
37281;DHT22;23169;41.804;12.596;2023-04-01T16:51:09;17.10;1.00
37281;DHT22;23169;41.804;12.596;2023-04-01T16:53:49;17.60;1.00
37281;DHT22;23169;41.804;12.596;2023-04-01T16:56:23;17.40;1.00
37281;DHT22;23169;41.804;12.596;2023-04-01T17:04:57;17.00;1.00
37281;DHT22;23169;41.804;12.596;2023-04-01T17:15:41;16.20;1.00
37281;DHT22;23169;41.804;12.596;2023-04-01T17:26:50;15.90;1.00
37281;DHT22;23169;41.804;12.596;2023-04-01T17:38:13;15.60;1.00
37281;DHT22;23169;41.804;12.596;2023-04-01T17:44:01;15.40;1.00
37281;DHT22;23169;41.804;12.596;2023-04-01T17:52:16;15.10;1.00
37281;DHT22;23169;41.804;12.596;2023-04-01T17:57:46;15.00;1.00
37281;DHT22;23169;41.804;12.596;2023-04-01T18:09:07;14.60;1.00
37281;DHT22;23169;41.804;12.596;2023-04-01T18:22:43;14.70;1.00
37281;DHT22;23169;41.804;12.596;2023-04-01T18:36:53;14.30;1.00
37281;DHT22;23169;41.804;12.596;2023-04-01T18:39:32;14.30;1.00
37281;DHT22;23169;41.804;12.596;2023-04-01T18:51:02;14.30;1.00
37281;DHT22;23169;41.804;12.596;2023-04-01T18:53:39;14.30;1.00
37281;DHT22;23169;41.804;12.596;2023-04-01T18:56:34;14.20;1.00
37281;DHT22;23169;41.804;12.596;2023-04-01T18:59:08;14.20;1.00
37281;DHT22;23169;41.804;12.596;2023-04-01T19:04:37;14.10;1.00
37281;DHT22;23169;41.804;12.596;2023-04-01T19:13:26;13.90;1.00
37281;DHT22;23169;41.804;12.596;2023-04-01T19:16:04;13.90;1.00
37281;DHT22;23169;41.804;12.596;2023-04-01T19:24:18;13.60;1.00
37281;DHT22;23169;41.804;12.596;2023-04-01T19:38:02;13.50;1.00
37281;DHT22;23169;41.804;12.596;2023-04-01T19:43:42;13.50;1.00
37281;DHT22;23169;41.804;12.596;2023-04-01T19:57:34;13.40;1.00
37281;DHT22;23169;41.804;12.596;2023-04-01T20:00:21;13.50;1.00
37281;DHT22;23169;41.804;12.596;2023-04-01T20:03:04;13.60;1.00
37281;DHT22;23169;41.804;12.596;2023-04-01T20:14:01;13.60;1.00
37281;DHT22;23169;41.804;12.596;2023-04-01T20:16:49;13.50;1.00
37281;DHT22;23169;41.804;12.596;2023-04-01T20:38:58;13.10;29.60
37281;DHT22;23169;41.804;12.596;2023-04-01T20:41:39;13.40;1.00
37281;DHT22;23169;41.804;12.596;2023-04-01T20:44:11;13.40;1.00
37281;DHT22;23169;41.804;12.596;2023-04-01T20:46:56;14.50;1.00
37281;DHT22;23169;41.804;12.596;2023-04-01T20:49:38;13.50;1.00
37281;DHT22;23169;41.804;12.596;2023-04-01T20:57:45;13.40;1.00
37281;DHT22;23169;41.804;12.596;2023-04-01T21:00:33;13.40;1.00
37281;DHT22;23169;41.804;12.596;2023-04-01T21:06:07;13.50;1.00
37281;DHT22;23169;41.804;12.596;2023-04-01T21:26:47;13.10;41.60
37281;DHT22;23169;41.804;12.596;2023-04-01T21:46:13;13.10;4.00
37281;DHT22;23169;41.804;12.596;2023-04-01T21:49:16;13.20;1.00
37281;DHT22;23169;41.804;12.596;2023-04-01T21:54:57;13.20;2.80
37281;DHT22;23169;41.804;12.596;2023-04-01T22:00:20;13.20;3.60
37281;DHT22;23169;41.804;12.596;2023-04-01T22:17:31;13.30;1.00
37281;DHT22;23169;41.804;12.596;2023-04-01T22:28:06;13.10;1.00
37281;DHT22;23169;41.804;12.596;2023-04-01T22:30:41;13.10;1.00
37281;DHT22;23169;41.804;12.596;2023-04-01T22:49:47;12.90;1.00
37281;DHT22;23169;41.804;12.596;2023-04-01T22:55:03;12.90;1.00
37281;DHT22;23169;41.804;12.596;2023-04-01T22:57:51;12.80;1.00
37281;DHT22;23169;41.804;12.596;2023-04-01T23:00:26;12.80;1.00
37281;DHT22;23169;41.804;12.596;2023-04-01T23:03:04;12.70;3.80
37281;DHT22;23169;41.804;12.596;2023-04-01T23:05:50;13.90;1.00
37281;DHT22;23169;41.804;12.596;2023-04-01T23:14:01;12.50;1.00
37281;DHT22;23169;41.804;12.596;2023-04-01T23:16:36;12.50;1.00
37281;DHT22;23169;41.804;12.596;2023-04-01T23:19:17;12.40;1.00
37281;DHT22;23169;41.804;12.596;2023-04-01T23:21:54;12.40;1.00
37281;DHT22;23169;41.804;12.596;2023-04-01T23:27:12;12.40;44.50
37281;DHT22;23169;41.804;12.596;2023-04-01T23:29:41;12.40;1.50
37281;DHT22;23169;41.804;12.596;2023-04-01T23:32:18;12.40;1.00
37281;DHT22;23169;41.804;12.596;2023-04-01T23:34:51;12.40;1.00
37281;DHT22;23169;41.804;12.596;2023-04-01T23:37:20;12.50;1.00
37281;DHT22;23169;41.804;12.596;2023-04-01T23:39:58;12.40;1.00
37281;DHT22;23169;41.804;12.596;2023-04-01T23:42:32;12.40;1.00
37281;DHT22;23169;41.804;12.596;2023-04-01T23:45:14;12.40;1.00
37281;DHT22;23169;41.804;12.596;2023-04-01T23:47:47;12.40;1.00
37281;DHT22;23169;41.804;12.596;2023-04-01T23:50:24;12.40;9.60
37281;DHT22;23169;41.804;12.596;2023-04-01T23:53:11;12.60;30.00
37281;DHT22;23169;41.804;12.596;2023-04-01T23:55:41;12.40;1.00
